Time;durP1;ratioP1;P1;durP2;ratioP2;P2;SDS_P1;SDS_P2;PMS_P1;PMS_P2;Temp;Humidity;BMP_temperature;BMP_pressure;BME280_temperature;BME280_humidity;BME280_pressure;Samples;Min_cycle;Max_cycle;Signal;HPM_P1;HPM_P2
2023/01/05 00:02:11;;;;;;;19.67;4.45;;;12.00;87.90;;;;;;5029753;28;20021;-67
2023/01/05 00:04:37;;;;;;;19.17;4.43;;;12.00;88.00;;;;;;5029030;28;20034;-66
2023/01/05 00:07:02;;;;;;;21.63;5.22;;;12.00;88.00;;;;;;5029650;28;20029;-68
2023/01/05 00:09:28;;;;;;;19.65;4.57;;;11.90;88.10;;;;;;5028711;28;20017;-68
2023/01/05 00:23:01;;;;;;;20.02;4.28;;;11.80;88.70;;;;;;5027122;28;20036;-67
2023/01/05 00:25:31;;;;;;;24.58;5.50;;;11.70;88.80;;;;;;5029684;28;20025;-67
2023/01/05 00:27:57;;;;;;;26.85;4.88;;;11.70;89.00;;;;;;5029722;28;20021;-67
2023/01/05 00:30:30;;;;;;;18.45;4.57;;;11.60;89.20;;;;;;5028636;28;20035;-67
2023/01/05 00:32:56;;;;;;;22.23;4.70;;;11.60;89.40;;;;;;5028365;28;20057;-66
2023/01/05 00:35:22;;;;;;;21.15;4.40;;;11.60;89.50;;;;;;5029070;28;20772;-67
2023/01/05 00:37:48;;;;;;;22.65;5.00;;;11.60;89.60;;;;;;5028941;28;20053;-67
2023/01/05 00:40:16;;;;;;;15.98;3.97;;;11.50;89.60;;;;;;5030584;28;20407;-66
2023/01/05 00:42:42;;;;;;;20.80;5.57;;;11.50;89.70;;;;;;5029135;28;20029;-67
2023/01/05 00:45:10;;;;;;;18.05;4.30;;;11.50;89.70;;;;;;5029730;28;20037;-67
2023/01/05 00:47:36;;;;;;;22.63;4.72;;;11.50;89.80;;;;;;5026079;28;20013;-66
2023/01/05 00:50:01;;;;;;;17.42;4.32;;;11.50;89.80;;;;;;5027851;28;20474;-67
2023/01/05 00:52:27;;;;;;;23.00;4.65;;;11.50;89.80;;;;;;5029483;28;20018;-66
2023/01/05 00:54:52;;;;;;;20.98;4.75;;;11.50;89.90;;;;;;5029268;28;20100;-66
2023/01/05 00:57:18;;;;;;;18.83;4.60;;;11.50;89.90;;;;;;5027726;28;20488;-68
2023/01/05 00:59:44;;;;;;;24.83;4.97;;;11.50;90.00;;;;;;5024035;28;20368;-66
2023/01/05 01:02:09;;;;;;;19.33;4.05;;;11.50;90.00;;;;;;5028477;28;20435;-65
2023/01/05 01:04:35;;;;;;;20.83;4.85;;;11.40;90.00;;;;;;5027786;28;20247;-66
2023/01/05 01:07:02;;;;;;;23.50;5.13;;;11.40;90.00;;;;;;5029006;28;20033;-65
2023/01/05 01:09:28;;;;;;;22.02;4.50;;;11.40;90.00;;;;;;5029647;28;20510;-66
2023/01/05 01:11:54;;;;;;;20.02;4.30;;;11.40;90.10;;;;;;5029456;28;20032;-67
2023/01/05 01:14:19;;;;;;;15.95;4.00;;;11.40;90.10;;;;;;5027719;28;20034;-65
2023/01/05 01:16:45;;;;;;;21.05;4.80;;;11.40;90.10;;;;;;5024011;28;20033;-67
2023/01/05 01:19:17;;;;;;;19.35;4.25;;;11.40;90.10;;;;;;5029609;28;20033;-67
2023/01/05 01:21:42;;;;;;;17.92;4.40;;;11.40;90.10;;;;;;5028840;28;20021;-66
2023/01/05 01:24:13;;;;;;;19.67;4.07;;;11.40;90.10;;;;;;5029539;28;20029;-67
2023/01/05 01:26:39;;;;;;;20.80;4.72;;;11.40;90.10;;;;;;5029158;28;20018;-66
2023/01/05 01:29:04;;;;;;;15.77;4.05;;;11.40;90.40;;;;;;5029885;28;20029;-66
2023/01/05 01:31:30;;;;;;;18.27;4.03;;;11.40;90.20;;;;;;5029588;28;20025;-66
2023/01/05 01:33:56;;;;;;;15.77;3.65;;;11.40;90.20;;;;;;5022519;28;20057;-67
2023/01/05 01:36:21;;;;;;;20.80;4.40;;;11.40;90.20;;;;;;5027527;28;20670;-66
2023/01/05 01:38:47;;;;;;;20.10;4.28;;;11.40;90.20;;;;;;5029113;28;20029;-65
2023/01/05 01:41:12;;;;;;;22.25;4.90;;;11.40;90.20;;;;;;5029158;28;20079;-66
2023/01/05 01:43:41;;;;;;;21.60;4.60;;;11.40;90.20;;;;;;5030776;28;20060;-65
2023/01/05 01:46:07;;;;;;;20.83;4.68;;;11.40;90.20;;;;;;5032231;28;20013;-66
2023/01/05 01:48:38;;;;;;;18.65;4.60;;;11.40;90.20;;;;;;5031609;28;20648;-66
2023/01/05 01:51:10;;;;;;;18.50;3.92;;;11.50;90.20;;;;;;5030348;28;20029;-67
2023/01/05 01:53:43;;;;;;;18.77;4.07;;;11.40;90.20;;;;;;5031602;28;20068;-67
2023/01/05 01:56:13;;;;;;;17.20;4.00;;;11.50;90.20;;;;;;5031694;28;20669;-67
2023/01/05 01:58:38;;;;;;;16.38;4.10;;;11.50;90.20;;;;;;5032605;28;20022;-68
2023/01/05 02:01:04;;;;;;;18.92;4.47;;;11.50;90.20;;;;;;5030551;28;20625;-65
2023/01/05 02:03:30;;;;;;;16.23;4.32;;;11.50;90.20;;;;;;5032092;28;20124;-67
2023/01/05 02:05:57;;;;;;;17.90;4.53;;;11.50;90.10;;;;;;5030226;28;20064;-67
2023/01/05 02:08:32;;;;;;;17.48;3.75;;;11.50;90.10;;;;;;5032232;28;20022;-66
2023/01/05 02:11:27;;;;;;;18.17;4.28;;;11.50;90.10;;;;;;5014919;28;20056;-66
2023/01/05 02:14:01;;;;;;;18.77;4.55;;;11.60;90.00;;;;;;5031836;28;20648;-67
2023/01/05 02:16:35;;;;;;;21.02;4.47;;;11.60;90.00;;;;;;5031587;28;20119;-66
2023/01/05 02:19:09;;;;;;;17.05;4.30;;;11.60;90.00;;;;;;5030099;28;20029;-68
2023/01/05 02:22:11;;;;;;;19.48;4.28;;;11.60;90.00;;;;;;5031500;28;20029;-66
2023/01/05 02:25:04;;;;;;;20.03;4.47;;;11.60;90.00;;;;;;5031536;28;20044;-68
2023/01/05 02:27:49;;;;;;;18.90;4.75;;;11.60;90.00;;;;;;5030631;28;20311;-67
2023/01/05 02:30:41;;;;;;;21.63;4.55;;;11.50;90.00;;;;;;5031515;28;20036;-66
2023/01/05 02:33:29;;;;;;;23.60;5.75;;;11.50;90.00;;;;;;5029373;28;20129;-67
2023/01/05 02:36:14;;;;;;;19.05;3.95;;;11.50;90.00;;;;;;5030135;28;20029;-67
2023/01/05 02:38:52;;;;;;;22.45;5.05;;;11.50;90.10;;;;;;5029827;28;20029;-67
2023/01/05 02:41:42;;;;;;;26.38;5.10;;;11.50;90.10;;;;;;5030266;28;20029;-66
2023/01/05 02:44:08;;;;;;;18.02;4.18;;;11.50;90.20;;;;;;5031263;28;20037;-67
2023/01/05 02:46:34;;;;;;;26.23;4.93;;;11.50;90.20;;;;;;5030169;28;20024;-66
2023/01/05 02:49:00;;;;;;;19.73;4.85;;;11.50;90.30;;;;;;5031273;28;20029;-67
2023/01/05 02:51:32;;;;;;;20.02;5.38;;;11.50;90.30;;;;;;5031079;28;20021;-67
2023/01/05 02:54:21;;;;;;;21.92;4.53;;;11.50;90.40;;;;;;5032116;28;20089;-66
2023/01/05 02:57:02;;;;;;;24.13;4.93;;;11.50;90.40;;;;;;5017848;28;20083;-66
2023/01/05 02:59:34;;;;;;;27.27;4.82;;;11.50;90.40;;;;;;5026800;28;20030;-66
2023/01/05 03:02:05;;;;;;;18.83;4.60;;;11.50;90.30;;;;;;5011693;28;20030;-65
2023/01/05 03:04:38;;;;;;;28.63;5.93;;;11.50;90.30;;;;;;5029426;28;20330;-66
2023/01/05 03:07:11;;;;;;;19.73;4.55;;;11.50;90.30;;;;;;5031285;28;20555;-66
2023/01/05 03:09:38;;;;;;;18.55;4.97;;;11.50;90.30;;;;;;5029502;28;20737;-66
2023/01/05 03:15:00;;;;;;;20.60;4.68;;;11.50;90.40;;;;;;5026854;28;20148;-66
2023/01/05 03:17:33;;;;;;;22.63;4.75;;;11.50;90.40;;;;;;5026918;28;20029;-67
2023/01/05 03:20:00;;;;;;;19.75;4.68;;;11.50;90.40;;;;;;5029412;28;20025;-67
2023/01/05 03:37:47;;;;;;;20.10;4.72;;;11.50;90.50;;;;;;5029026;28;20045;-66
2023/01/05 03:40:23;;;;;;;18.33;4.10;;;11.60;90.50;;;;;;5026273;28;20030;-66
2023/01/05 03:42:49;;;;;;;21.92;5.32;;;11.60;90.50;;;;;;5011897;28;20026;-66
2023/01/05 03:45:16;;;;;;;18.90;4.20;;;11.60;90.40;;;;;;5030329;28;20017;-66
2023/01/05 03:47:42;;;;;;;20.65;4.90;;;11.60;90.50;;;;;;5030658;28;20033;-67
2023/01/05 03:50:08;;;;;;;27.10;4.95;;;11.60;90.50;;;;;;5030596;28;20029;-67
2023/01/05 03:52:34;;;;;;;17.33;4.35;;;11.60;90.40;;;;;;5029112;28;20168;-67
2023/01/05 03:54:59;;;;;;;19.27;4.78;;;11.60;90.40;;;;;;5030452;28;20100;-67
2023/01/05 03:57:25;;;;;;;18.30;3.78;;;11.60;90.40;;;;;;5030472;28;20033;-66
2023/01/05 03:59:50;;;;;;;20.05;4.45;;;11.60;90.50;;;;;;5030416;28;20075;-67
2023/01/05 04:02:16;;;;;;;21.98;4.90;;;11.60;90.50;;;;;;5030633;28;20026;-66
2023/01/05 04:04:41;;;;;;;23.63;5.03;;;11.60;90.50;;;;;;5028488;28;20027;-67
2023/01/05 04:07:07;;;;;;;20.08;4.55;;;11.50;90.50;;;;;;5029504;28;20087;-67
2023/01/05 04:09:33;;;;;;;18.00;4.20;;;11.50;90.50;;;;;;5030604;28;20030;-67
2023/01/05 04:11:59;;;;;;;20.00;4.55;;;11.50;90.50;;;;;;5029169;28;20025;-67
2023/01/05 04:14:25;;;;;;;20.35;4.15;;;11.50;90.50;;;;;;5029837;28;20068;-67
2023/01/05 04:16:50;;;;;;;18.08;4.15;;;11.50;90.50;;;;;;5029903;28;20056;-67
2023/01/05 04:19:16;;;;;;;17.17;4.20;;;11.50;90.60;;;;;;5028663;28;20438;-67
2023/01/05 04:21:42;;;;;;;16.85;4.13;;;11.50;90.70;;;;;;5028853;28;20040;-67
2023/01/05 04:24:09;;;;;;;21.30;4.20;;;11.50;90.60;;;;;;5029596;28;20471;-67
2023/01/05 04:26:36;;;;;;;19.77;4.43;;;11.60;90.60;;;;;;5028572;28;20029;-67
2023/01/05 04:29:03;;;;;;;21.83;4.85;;;11.50;90.60;;;;;;5029459;28;20025;-67
2023/01/05 04:31:28;;;;;;;15.05;4.15;;;11.50;90.60;;;;;;5028401;28;20018;-67
2023/01/05 04:33:54;;;;;;;20.55;4.68;;;11.60;90.60;;;;;;5029206;28;20021;-66
2023/01/05 04:36:19;;;;;;;17.17;3.97;;;11.50;90.60;;;;;;5029487;28;20074;-66
2023/01/05 04:38:45;;;;;;;20.20;4.53;;;11.50;90.60;;;;;;5029408;28;20055;-66
2023/01/05 04:41:10;;;;;;;16.95;3.95;;;11.50;90.50;;;;;;5029398;28;20029;-66
2023/01/05 04:43:36;;;;;;;24.83;5.05;;;11.50;90.60;;;;;;5029755;28;20045;-66
2023/01/05 04:46:02;;;;;;;19.48;4.32;;;11.50;90.60;;;;;;5028249;28;20021;-66
2023/01/05 04:48:27;;;;;;;15.98;4.18;;;11.50;90.60;;;;;;5028618;28;20516;-66
2023/01/05 04:50:54;;;;;;;19.48;3.80;;;11.50;90.60;;;;;;5028408;28;20044;-66
2023/01/05 04:53:21;;;;;;;15.60;3.70;;;11.50;90.60;;;;;;5029948;28;20039;-66
2023/01/05 04:55:47;;;;;;;16.02;3.78;;;11.60;90.60;;;;;;5029779;28;20113;-66
2023/01/05 04:58:12;;;;;;;15.60;3.88;;;11.60;90.60;;;;;;5028033;28;20091;-66
2023/01/05 05:00:38;;;;;;;17.02;3.90;;;11.60;90.60;;;;;;5028293;28;20558;-66
2023/01/05 05:03:04;;;;;;;17.88;3.92;;;11.60;90.70;;;;;;5029579;28;20025;-67
2023/01/05 05:05:29;;;;;;;22.08;4.60;;;11.60;91.00;;;;;;5028219;28;20083;-66
2023/01/05 05:07:55;;;;;;;21.02;4.28;;;11.60;90.70;;;;;;5029572;28;20033;-66
2023/01/05 05:10:20;;;;;;;18.50;3.60;;;11.50;90.70;;;;;;5029248;28;20116;-66
2023/01/05 05:12:46;;;;;;;21.30;4.35;;;11.50;90.80;;;;;;5029684;28;20037;-67
2023/01/05 05:15:11;;;;;;;20.65;4.50;;;11.50;90.80;;;;;;5027392;28;20038;-66
2023/01/05 05:17:37;;;;;;;17.17;4.53;;;11.50;90.90;;;;;;5028634;28;20028;-66
2023/01/05 05:20:04;;;;;;;21.02;4.43;;;11.50;90.90;;;;;;5033597;28;20028;-66
2023/01/05 05:22:30;;;;;;;24.17;4.45;;;11.50;91.00;;;;;;5033434;28;20034;-66
2023/01/05 05:24:55;;;;;;;19.90;4.13;;;11.50;91.00;;;;;;5033285;28;20082;-66
2023/01/05 05:27:21;;;;;;;22.45;3.72;;;11.50;91.00;;;;;;5032964;28;20488;-66
2023/01/05 05:29:47;;;;;;;19.00;4.18;;;11.50;91.00;;;;;;5034015;28;20037;-66
2023/01/05 05:32:12;;;;;;;13.75;3.90;;;11.50;91.00;;;;;;5034775;28;20025;-66
2023/01/05 05:34:38;;;;;;;19.30;4.22;;;11.50;91.00;;;;;;5034577;28;20064;-66
2023/01/05 05:37:03;;;;;;;21.52;4.38;;;11.50;91.00;;;;;;5035733;28;20044;-66
2023/01/05 05:39:29;;;;;;;19.63;4.38;;;11.60;91.00;;;;;;5034514;28;20037;-66
2023/01/05 05:41:54;;;;;;;13.40;3.53;;;11.60;91.00;;;;;;5034351;28;20049;-66
2023/01/05 05:44:20;;;;;;;16.52;3.72;;;11.60;91.00;;;;;;5034875;28;20483;-66
2023/01/05 05:46:45;;;;;;;14.82;3.50;;;11.60;91.00;;;;;;5034116;28;20029;-67
2023/01/05 05:49:12;;;;;;;15.18;3.80;;;11.60;91.00;;;;;;5028721;28;20030;-66
2023/01/05 05:51:37;;;;;;;13.93;3.40;;;11.60;91.00;;;;;;5027599;28;20018;-67
2023/01/05 05:54:03;;;;;;;14.70;3.47;;;11.60;91.00;;;;;;5033487;28;20048;-66
2023/01/05 05:56:29;;;;;;;18.83;4.22;;;11.60;91.00;;;;;;5033606;28;20025;-66
2023/01/05 05:58:55;;;;;;;17.02;3.53;;;11.70;91.00;;;;;;5033003;28;20483;-66
2023/01/05 06:01:20;;;;;;;20.20;4.20;;;11.60;91.00;;;;;;5033198;28;20086;-66
2023/01/05 06:03:46;;;;;;;20.13;4.63;;;11.60;90.90;;;;;;5032652;28;20069;-66
2023/01/05 06:06:11;;;;;;;20.25;4.15;;;11.60;90.90;;;;;;5032515;28;20063;-66
2023/01/05 06:08:37;;;;;;;19.70;3.95;;;11.60;90.90;;;;;;5028735;28;20026;-66
2023/01/05 06:11:03;;;;;;;19.52;4.30;;;11.60;90.90;;;;;;5029349;28;20021;-66
2023/01/05 06:13:28;;;;;;;16.23;3.63;;;11.60;91.00;;;;;;5032571;28;20029;-67
2023/01/05 06:15:54;;;;;;;17.15;3.80;;;11.70;91.00;;;;;;5031893;28;20104;-66
2023/01/05 06:18:19;;;;;;;19.13;4.03;;;11.60;91.00;;;;;;5030353;28;20029;-66
2023/01/05 06:20:45;;;;;;;20.52;5.15;;;11.70;91.00;;;;;;5025254;28;20087;-66
2023/01/05 06:23:11;;;;;;;17.73;3.63;;;11.70;91.00;;;;;;5021258;28;20488;-66
2023/01/05 06:25:36;;;;;;;16.75;3.72;;;11.70;90.90;;;;;;5023852;28;20096;-66
2023/01/05 06:28:02;;;;;;;17.45;3.92;;;11.60;90.90;;;;;;5030439;28;20450;-66
2023/01/05 06:30:28;;;;;;;17.88;3.92;;;11.70;91.00;;;;;;5030225;28;20472;-66
2023/01/05 06:32:54;;;;;;;18.33;3.80;;;11.70;91.30;;;;;;5031003;28;20048;-66
2023/01/05 06:35:20;;;;;;;20.50;3.80;;;11.70;91.10;;;;;;5032297;28;20021;-66
2023/01/05 06:37:45;;;;;;;16.92;3.63;;;11.70;91.00;;;;;;5030607;28;20036;-66
2023/01/05 06:40:12;;;;;;;16.65;3.78;;;11.70;91.00;;;;;;5032852;28;20488;-66
2023/01/05 06:42:38;;;;;;;23.05;4.70;;;11.70;91.00;;;;;;5031254;28;20085;-66
2023/01/05 06:45:05;;;;;;;18.30;4.07;;;11.70;91.00;;;;;;5031602;28;20112;-67
2023/01/05 06:47:30;;;;;;;20.17;4.28;;;11.70;91.00;;;;;;5031463;28;20013;-66
2023/01/05 06:49:56;;;;;;;19.63;4.18;;;11.70;91.00;;;;;;5031482;28;20018;-66
2023/01/05 06:52:22;;;;;;;17.63;4.25;;;11.70;91.00;;;;;;5032161;28;20017;-66
2023/01/05 06:54:47;;;;;;;20.17;4.45;;;11.80;91.00;;;;;;5029863;28;20036;-67
2023/01/05 06:57:13;;;;;;;21.80;5.00;;;11.70;91.00;;;;;;5031210;28;20048;-66
2023/01/05 06:59:38;;;;;;;19.23;4.60;;;11.70;91.00;;;;;;5031135;28;20515;-65
2023/01/05 07:02:05;;;;;;;19.42;3.92;;;11.70;91.10;;;;;;5030191;28;20025;-66
2023/01/05 07:04:30;;;;;;;15.85;3.95;;;11.80;91.10;;;;;;5031210;28;20594;-65
2023/01/05 07:06:56;;;;;;;18.98;4.20;;;11.80;91.10;;;;;;5031308;28;20104;-65
2023/01/05 07:09:21;;;;;;;17.52;3.60;;;11.80;91.10;;;;;;5030817;28;20107;-66
2023/01/05 07:11:47;;;;;;;14.70;3.85;;;11.80;91.20;;;;;;5031214;28;20029;-66
2023/01/05 07:14:13;;;;;;;18.80;4.15;;;11.70;91.20;;;;;;5032478;28;20043;-66
2023/01/05 07:16:38;;;;;;;13.88;3.50;;;11.70;91.30;;;;;;5030434;28;20107;-66
2023/01/05 07:19:04;;;;;;;17.75;4.20;;;11.70;91.30;;;;;;5030518;28;20036;-67
2023/01/05 07:21:30;;;;;;;21.27;4.35;;;11.70;91.40;;;;;;5030613;28;20025;-66
2023/01/05 07:23:55;;;;;;;19.33;4.72;;;11.60;91.40;;;;;;5029803;28;20036;-66
2023/01/05 07:26:21;;;;;;;19.75;4.07;;;11.60;91.60;;;;;;5031237;28;20026;-67
2023/01/05 07:28:46;;;;;;;18.75;4.15;;;11.60;91.60;;;;;;5030178;28;20100;-67
2023/01/05 07:31:12;;;;;;;20.70;4.50;;;11.60;91.70;;;;;;5030994;28;20510;-66
2023/01/05 07:33:38;;;;;;;17.85;4.43;;;11.60;91.80;;;;;;5030779;28;20100;-66
2023/01/05 07:36:04;;;;;;;19.85;4.63;;;11.60;91.80;;;;;;5031400;28;20030;-66
2023/01/05 07:38:31;;;;;;;21.30;4.35;;;11.60;91.90;;;;;;5030788;28;20061;-66
2023/01/05 07:41:00;;;;;;;19.52;4.05;;;11.60;91.90;;;;;;5031371;28;20491;-66
2023/01/05 07:43:26;;;;;;;24.15;4.75;;;11.60;91.90;;;;;;5031023;28;20029;-66
2023/01/05 07:45:57;;;;;;;16.95;4.05;;;11.60;91.90;;;;;;5029773;28;20060;-66
2023/01/05 07:48:23;;;;;;;22.08;4.20;;;11.60;91.90;;;;;;5030463;28;20017;-67
2023/01/05 07:50:48;;;;;;;16.45;4.05;;;11.60;91.90;;;;;;5029912;28;20025;-67
2023/01/05 07:53:14;;;;;;;14.63;4.22;;;11.60;91.80;;;;;;5027130;28;20046;-67
2023/01/05 07:55:39;;;;;;;21.92;4.18;;;11.70;91.80;;;;;;5030901;28;20037;-66
2023/01/05 07:58:05;;;;;;;20.02;4.65;;;11.70;91.80;;;;;;5029000;28;20036;-66
2023/01/05 08:00:30;;;;;;;14.88;3.97;;;11.70;91.70;;;;;;5030436;28;20037;-67
2023/01/05 08:02:56;;;;;;;22.80;4.05;;;11.70;91.70;;;;;;5025886;28;20025;-67
2023/01/05 08:05:22;;;;;;;21.63;4.22;;;11.70;91.70;;;;;;5021225;28;20029;-67
2023/01/05 08:07:47;;;;;;;20.08;4.03;;;11.70;91.70;;;;;;5020570;28;20028;-66
2023/01/05 08:10:28;;;;;;;15.63;3.72;;;11.70;91.70;;;;;;5023629;28;20018;-67
2023/01/05 08:15:38;;;;;;;23.75;4.13;;;11.70;91.60;;;;;;5024226;28;20174;-67
2023/01/05 08:18:04;;;;;;;18.50;3.88;;;11.70;91.60;;;;;;5027242;28;20072;-67
2023/01/05 08:20:29;;;;;;;20.90;4.90;;;11.70;91.60;;;;;;5026442;28;20123;-67
2023/01/05 08:22:55;;;;;;;22.00;4.88;;;11.70;91.50;;;;;;5022684;28;20025;-67
2023/01/05 08:25:20;;;;;;;25.52;4.68;;;11.70;91.40;;;;;;5025191;28;20029;-67
2023/01/05 08:27:47;;;;;;;23.80;4.45;;;11.70;91.40;;;;;;5024756;28;20086;-66
2023/01/05 08:30:13;;;;;;;19.55;4.15;;;11.70;91.40;;;;;;5022426;28;20021;-67
2023/01/05 08:32:39;;;;;;;17.50;4.00;;;11.80;91.40;;;;;;5027213;28;20025;-67
2023/01/05 08:35:05;;;;;;;14.57;4.00;;;11.70;91.30;;;;;;5026848;28;20025;-67
2023/01/05 08:37:30;;;;;;;19.88;4.22;;;11.80;91.30;;;;;;5022022;28;20503;-66
2023/01/05 08:39:56;;;;;;;20.45;4.38;;;11.70;91.20;;;;;;5028296;28;20034;-67
2023/01/05 08:42:22;;;;;;;15.63;3.55;;;11.80;91.20;;;;;;5028912;28;20033;-67
2023/01/05 08:44:47;;;;;;;15.85;3.95;;;11.80;91.10;;;;;;5020521;28;20034;-67
2023/01/05 08:47:13;;;;;;;17.15;4.30;;;11.80;91.10;;;;;;5027786;28;20022;-67
2023/01/05 08:49:39;;;;;;;18.38;4.53;;;11.80;91.00;;;;;;5020887;28;20028;-67
2023/01/05 08:52:06;;;;;;;19.90;4.50;;;11.80;91.00;;;;;;5029247;28;20026;-67
2023/01/05 08:54:31;;;;;;;21.63;4.50;;;11.80;90.90;;;;;;5026719;28;20687;-67
2023/01/05 08:56:57;;;;;;;19.77;4.30;;;11.80;90.90;;;;;;5028818;28;20060;-67
2023/01/05 08:59:22;;;;;;;20.67;4.30;;;11.80;90.80;;;;;;5026144;28;20056;-67
2023/01/05 09:01:49;;;;;;;16.15;4.07;;;11.70;90.80;;;;;;5019979;28;20681;-67
2023/01/05 09:04:15;;;;;;;19.17;4.15;;;11.80;90.90;;;;;;5027311;28;20115;-67
2023/01/05 09:06:40;;;;;;;14.00;3.58;;;11.80;90.90;;;;;;5026233;28;20030;-67
2023/01/05 09:09:06;;;;;;;19.67;3.90;;;11.80;90.80;;;;;;5033110;28;20032;-67
2023/01/05 09:11:33;;;;;;;19.02;4.22;;;11.80;90.80;;;;;;5031798;28;20564;-67
2023/01/05 09:14:01;;;;;;;16.85;3.55;;;11.80;90.80;;;;;;5032638;28;20076;-67
2023/01/05 09:16:31;;;;;;;21.13;3.88;;;11.90;90.80;;;;;;5030623;28;20398;-66
2023/01/05 09:18:58;;;;;;;12.45;3.25;;;11.80;90.70;;;;;;5033897;28;20467;-66
2023/01/05 09:21:24;;;;;;;16.85;3.72;;;11.80;90.70;;;;;;5033605;28;20360;-67
2023/01/05 09:23:50;;;;;;;16.83;3.53;;;11.90;90.70;;;;;;5033415;28;20045;-66
2023/01/05 09:26:16;;;;;;;17.73;4.20;;;11.90;90.60;;;;;;5032122;28;20456;-67
2023/01/05 09:28:43;;;;;;;21.08;4.50;;;11.80;90.50;;;;;;5024075;28;20511;-66
2023/01/05 09:31:11;;;;;;;18.20;3.90;;;11.90;90.50;;;;;;5029941;28;20034;-66
2023/01/05 09:33:38;;;;;;;14.98;3.72;;;11.80;90.50;;;;;;5027621;28;20468;-66
2023/01/05 09:36:04;;;;;;;17.60;3.42;;;11.80;90.50;;;;;;5026814;28;20029;-66
2023/01/05 09:38:29;;;;;;;16.92;3.92;;;11.90;90.60;;;;;;5026258;28;20075;-66
2023/01/05 09:41:01;;;;;;;19.10;4.22;;;11.90;90.50;;;;;;5023925;28;20026;-66
2023/01/05 09:43:31;;;;;;;17.80;3.73;;;11.90;90.50;;;;;;5022338;28;20044;-67
2023/01/05 09:45:58;;;;;;;14.52;3.75;;;11.80;90.50;;;;;;5022950;28;20033;-68
2023/01/05 09:48:24;;;;;;;20.67;4.45;;;11.80;90.50;;;;;;5030199;28;20021;-68
2023/01/05 09:50:51;;;;;;;15.82;3.38;;;11.90;90.40;;;;;;5044685;28;20033;-67
2023/01/05 09:53:27;;;;;;;16.77;4.05;;;11.90;90.40;;;;;;5021918;28;20092;-67
2023/01/05 09:55:53;;;;;;;16.58;3.80;;;11.90;90.40;;;;;;5027117;28;20044;-68
2023/01/05 09:58:27;;;;;;;18.30;4.45;;;11.90;90.40;;;;;;5027317;28;20096;-67
2023/01/05 10:01:09;;;;;;;17.08;3.88;;;11.90;90.40;;;;;;5031146;28;20048;-67
2023/01/05 10:03:39;;;;;;;19.58;4.40;;;11.90;90.40;;;;;;5022686;28;20025;-67
2023/01/05 10:06:11;;;;;;;22.38;4.30;;;11.90;90.40;;;;;;5022851;28;20175;-68
2023/01/05 10:08:43;;;;;;;;;;;11.90;90.30;;;;;;5029874;28;20048;-68
2023/01/05 10:14:34;;;;;;;18.98;3.58;;;11.90;90.30;;;;;;5024866;28;20083;-68
2023/01/05 10:17:00;;;;;;;20.02;3.75;;;11.90;90.40;;;;;;5023914;28;20112;-68
2023/01/05 10:19:28;;;;;;;12.73;3.58;;;12.00;90.30;;;;;;5028011;28;20156;-68
2023/01/05 10:22:23;;;;;;;18.33;3.90;;;12.00;90.20;;;;;;5028410;28;20052;-67
2023/01/05 10:24:51;;;;;;;21.83;4.38;;;12.00;90.20;;;;;;5027531;28;20029;-67
2023/01/05 10:27:20;;;;;;;15.80;4.07;;;12.00;90.10;;;;;;5023460;28;20029;-68
2023/01/05 10:29:48;;;;;;;18.65;3.85;;;12.00;90.20;;;;;;5023741;28;20219;-68
2023/01/05 10:32:23;;;;;;;20.73;4.22;;;12.00;90.10;;;;;;5025581;28;20074;-68
2023/01/05 10:35:01;;;;;;;19.48;4.38;;;12.10;90.10;;;;;;5026005;28;20416;-67
2023/01/05 10:37:52;;;;;;;19.30;4.13;;;12.00;90.00;;;;;;5026596;28;20042;-67
2023/01/05 10:40:26;;;;;;;17.23;4.20;;;12.10;90.00;;;;;;5028371;28;20056;-68
2023/01/05 10:43:20;;;;;;;20.48;4.00;;;12.10;90.00;;;;;;5026531;28;20129;-67
2023/01/05 10:45:45;;;;;;;21.35;4.20;;;12.10;90.00;;;;;;5031192;28;20740;-67
2023/01/05 10:48:17;;;;;;;20.50;4.75;;;12.10;89.90;;;;;;5032820;28;20048;-68
2023/01/05 10:50:45;;;;;;;18.10;4.45;;;12.00;89.90;;;;;;5033546;28;20047;-67
2023/01/05 10:53:26;;;;;;;13.88;3.90;;;12.00;89.90;;;;;;5032420;28;20025;-68
2023/01/05 10:56:04;;;;;;;21.75;4.63;;;12.10;89.80;;;;;;5032114;28;20065;-67
2023/01/05 10:58:37;;;;;;;16.55;3.90;;;12.10;89.80;;;;;;5029959;28;20092;-67
2023/01/05 11:01:16;;;;;;;20.50;4.47;;;12.10;89.80;;;;;;5031971;28;20029;-67
2023/01/05 11:03:45;;;;;;;23.20;4.85;;;12.10;89.70;;;;;;5030201;28;20029;-67
2023/01/05 11:06:20;;;;;;;21.45;4.20;;;12.20;89.60;;;;;;5032096;28;20033;-67
2023/01/05 11:08:46;;;;;;;17.23;3.92;;;12.10;89.40;;;;;;5031694;28;20108;-67
2023/01/05 11:11:25;;;;;;;17.08;3.95;;;12.10;89.50;;;;;;5030796;28;20489;-67
2023/01/05 11:13:56;;;;;;;21.23;4.43;;;12.20;89.50;;;;;;5029736;28;20036;-67
2023/01/05 11:16:27;;;;;;;21.05;4.82;;;12.20;89.40;;;;;;5031142;28;20033;-68
2023/01/05 11:19:01;;;;;;;20.90;4.53;;;12.20;89.30;;;;;;5031573;28;20041;-67
2023/01/05 11:21:47;;;;;;;18.60;3.72;;;12.20;89.30;;;;;;5022493;28;20272;-67
2023/01/05 11:24:29;;;;;;;19.85;4.85;;;12.30;89.30;;;;;;5029286;28;20056;-68
2023/01/05 11:26:57;;;;;;;18.67;4.13;;;12.30;89.20;;;;;;5026354;28;20109;-68
2023/01/05 11:29:23;;;;;;;15.00;3.75;;;12.30;89.20;;;;;;5029458;28;20029;-68
2023/01/05 11:31:53;;;;;;;14.55;3.55;;;12.40;89.10;;;;;;5029744;28;20652;-68
2023/01/05 11:34:34;;;;;;;19.05;4.53;;;12.40;89.00;;;;;;5031911;28;20053;-66
2023/01/05 11:37:08;;;;;;;17.92;4.68;;;12.40;88.70;;;;;;5030402;28;20033;-68
2023/01/05 11:39:39;;;;;;;17.73;4.28;;;12.40;88.60;;;;;;5029044;28;20029;-68
2023/01/05 11:42:10;;;;;;;15.35;3.85;;;12.40;88.50;;;;;;5030331;28;20056;-68
2023/01/05 11:44:36;;;;;;;17.80;4.15;;;12.40;88.50;;;;;;5029293;28;20029;-68
2023/01/05 11:47:05;;;;;;;18.58;4.07;;;12.50;89.10;;;;;;5029803;28;20040;-68
2023/01/05 11:49:31;;;;;;;17.30;4.00;;;12.50;88.50;;;;;;5024793;28;20522;-68
2023/01/05 11:51:57;;;;;;;19.70;4.82;;;12.60;88.30;;;;;;5025404;28;20076;-67
2023/01/05 11:54:31;;;;;;;14.13;3.83;;;12.60;88.20;;;;;;5029388;28;20018;-68
2023/01/05 11:57:15;;;;;;;14.10;4.00;;;12.70;88.20;;;;;;5028555;28;20037;-67
2023/01/05 11:59:42;;;;;;;20.23;4.28;;;12.70;87.90;;;;;;5019007;28;20029;-68
2023/01/05 12:02:49;;;;;;;20.35;4.45;;;12.70;87.80;;;;;;5023929;28;20124;-68
2023/01/05 12:05:21;;;;;;;14.45;4.30;;;12.70;87.70;;;;;;5024072;28;20031;-68
2023/01/05 12:07:52;;;;;;;14.23;3.47;;;12.70;87.70;;;;;;5024881;28;20514;-68
2023/01/05 12:10:33;;;;;;;20.95;4.47;;;12.70;87.70;;;;;;5024611;28;20151;-68
2023/01/05 12:13:27;;;;;;;14.60;4.27;;;12.70;87.70;;;;;;5025996;28;20614;-68
2023/01/05 12:16:10;;;;;;;15.80;3.70;;;12.70;87.80;;;;;;5024359;28;20636;-68
2023/01/05 12:18:42;;;;;;;13.68;3.28;;;12.70;87.70;;;;;;5022841;28;20530;-68
2023/01/05 12:21:24;;;;;;;17.42;3.72;;;12.80;87.80;;;;;;5023382;28;20034;-68
2023/01/05 12:24:11;;;;;;;17.27;4.38;;;12.80;87.60;;;;;;5023447;28;20030;-68
2023/01/05 12:27:05;;;;;;;19.70;4.60;;;12.80;87.60;;;;;;5023248;28;20036;-68
2023/01/05 12:30:15;;;;;;;17.88;4.18;;;12.90;88.00;;;;;;5019139;28;20033;-68
2023/01/05 12:32:56;;;;;;;24.38;5.00;;;13.00;87.70;;;;;;5023181;28;20037;-65
2023/01/05 12:35:57;;;;;;;20.23;4.47;;;13.00;87.30;;;;;;5025434;28;20064;-66
2023/01/05 12:38:53;;;;;;;21.35;5.38;;;13.50;87.10;;;;;;4962348;28;20026;-67
2023/01/05 12:41:25;;;;;;;18.50;4.25;;;13.90;85.20;;;;;;5023950;28;20045;-66
2023/01/05 12:44:27;;;;;;;28.70;5.55;;;14.30;85.10;;;;;;5024677;28;20030;-66
2023/01/05 12:47:05;;;;;;;21.15;4.53;;;14.00;83.60;;;;;;5022976;28;20874;-66
2023/01/05 12:49:45;;;;;;;21.20;4.32;;;14.10;83.70;;;;;;5020551;28;20282;-66
2023/01/05 12:52:24;;;;;;;14.57;4.10;;;14.00;83.90;;;;;;5022974;28;20025;-66
2023/01/05 12:55:02;;;;;;;20.98;5.00;;;13.80;84.00;;;;;;5024675;28;20211;-67
2023/01/05 12:57:37;;;;;;;17.85;4.15;;;13.60;83.80;;;;;;5023468;28;20104;-66
2023/01/05 13:00:17;;;;;;;18.30;4.72;;;13.60;83.10;;;;;;5017211;28;20041;-66
2023/01/05 13:03:00;;;;;;;16.52;3.88;;;13.40;83.00;;;;;;5021110;28;20511;-66
2023/01/05 13:05:31;;;;;;;14.38;4.32;;;13.30;83.20;;;;;;5024827;28;20094;-66
2023/01/05 13:08:21;;;;;;;17.85;4.22;;;13.30;83.60;;;;;;5025686;28;20031;-67
2023/01/05 13:10:59;;;;;;;17.67;4.80;;;13.80;83.20;;;;;;5023017;28;20022;-67
2023/01/05 13:13:34;;;;;;;17.10;4.10;;;14.00;82.20;;;;;;5025770;28;20071;-67
2023/01/05 13:16:21;;;;;;;17.17;4.22;;;14.20;81.70;;;;;;5025813;28;20033;-67
2023/01/05 13:18:54;;;;;;;21.20;4.97;;;14.50;81.20;;;;;;5025417;28;20041;-67
2023/01/05 13:21:20;;;;;;;20.05;4.50;;;14.60;80.50;;;;;;5024838;28;20116;-67
2023/01/05 13:23:57;;;;;;;18.38;4.70;;;14.60;80.10;;;;;;5024955;28;20022;-67
2023/01/05 13:26:23;;;;;;;16.52;4.45;;;14.50;79.60;;;;;;5039349;28;20087;-67
2023/01/05 13:28:52;;;;;;;16.58;4.30;;;14.50;80.00;;;;;;5023131;28;20034;-67